首页
METAR-TAF:

METAR-TAF

机场 :

金奈, 印度

金奈国际机场

纬度: 13-00N, 经度: 080-11E, 海拔: 10米

当前天气观测

该预报发布于21分钟前的03:00 UTC
风速4节,风向西转西北
温度 24°C
湿度 69%
气压 1016 hPa
能見度: 1600
散云层高于1800英尺
散云层高于10000英尺
轻雾

METAR: VOMM 200300Z 29004KT 1600 BR SCT018 SCT100 24/18 Q1016 BECMG 3000 BR

时间: 08:51 (03:21 UTC)

预报

该预报发布于4小时和21分钟前的23:00 UTC
预报有效从20日的 00点(UTC)到 21日的 06点(UTC)
风速节,风向
能見度: 2000
少量云层高于2000英尺
轻雾
成为
从 20日的 04点(UTC)到 20日的 05点(UTC)
风速5节,风向东转东北
能見度: 3000
轻雾
成为
从 20日的 09点(UTC)到 20日的 10点(UTC)
能見度: 6000
成为
从 20日的 21点(UTC)到 20日的 22点(UTC)
风速节,风向
能見度: 3000
轻雾
成为
从 21日的 00点(UTC)到 21日的 01点(UTC)
能見度: 2000
轻雾
成为
从 21日的 04点(UTC)到 21日的 05点(UTC)
风速5节,风向东转东北
能見度: 3000
轻雾

TAF: VOMM 192300Z 2000/2106 00000KT 2000 BR FEW020 BECMG 2004/2005 07005KT 3000 BR BECMG 2009/2010 6000 BECMG 2021/2022 00000KT 3000 BR BECMG 2100/2101 2000 BR BECMG 2104/2105 07005KT 3000 BR

超过4000个机场的气象观测和天气预报(METAR&TAF报告)。

可查询的气象台以黄色和红色小点在地图上表示。

将鼠标移到小点上方,可查看气象台名称。

然后点击查看天气观测和预报。

如需切换地图:点击带黑十字的绿色按钮放大地图;点击带横线的绿色按钮缩小地图;或者点击绿色箭头查看邻近地区的地图。


METAR-TAF: